sensor_id;sensor_type;location;lat;lon;timestamp;pressure;altitude;pressure_sealevel;temperature;humidity
69171;BME280;56279;47.902;12.308;2023-12-20T00:01:08;95514.41;;;2.91;85.25
69171;BME280;56279;47.902;12.308;2023-12-20T00:03:09;95506.59;;;2.91;85.30
69171;BME280;56279;47.902;12.308;2023-12-20T00:05:10;95514.19;;;2.92;85.55
69171;BME280;56279;47.902;12.308;2023-12-20T00:07:12;95503.56;;;2.94;85.61
69171;BME280;56279;47.902;12.308;2023-12-20T00:09:13;95500.72;;;2.95;85.61
69171;BME280;56279;47.902;12.308;2023-12-20T00:11:14;95497.09;;;2.96;85.46
69171;BME280;56279;47.902;12.308;2023-12-20T00:13:15;95495.38;;;3.02;85.47
69171;BME280;56279;47.902;12.308;2023-12-20T00:15:17;95488.13;;;3.04;85.09
69171;BME280;56279;47.902;12.308;2023-12-20T00:17:18;95486.69;;;3.08;84.83
69171;BME280;56279;47.902;12.308;2023-12-20T00:19:19;95478.94;;;3.13;84.97
69171;BME280;56279;47.902;12.308;2023-12-20T00:21:21;95472.06;;;3.18;84.51
69171;BME280;56279;47.902;12.308;2023-12-20T00:23:22;95464.09;;;3.25;84.19
69171;BME280;56279;47.902;12.308;2023-12-20T00:25:24;95459.00;;;3.30;84.41
69171;BME280;56279;47.902;12.308;2023-12-20T00:27:25;95452.31;;;3.34;84.43
69171;BME280;56279;47.902;12.308;2023-12-20T00:29:27;95447.75;;;3.41;83.89
69171;BME280;56279;47.902;12.308;2023-12-20T00:31:28;95447.44;;;3.49;83.41
69171;BME280;56279;47.902;12.308;2023-12-20T00:33:29;95445.50;;;3.56;83.24
69171;BME280;56279;47.902;12.308;2023-12-20T00:35:30;95442.19;;;3.61;82.71
69171;BME280;56279;47.902;12.308;2023-12-20T00:37:31;95434.69;;;3.64;82.62
69171;BME280;56279;47.902;12.308;2023-12-20T00:39:33;95441.03;;;3.68;82.17
69171;BME280;56279;47.902;12.308;2023-12-20T00:41:34;95437.94;;;3.71;82.17
69171;BME280;56279;47.902;12.308;2023-12-20T00:43:35;95432.28;;;3.74;82.13
69171;BME280;56279;47.902;12.308;2023-12-20T00:45:37;95425.81;;;3.77;82.12
69171;BME280;56279;47.902;12.308;2023-12-20T00:47:38;95429.31;;;3.82;81.58
69171;BME280;56279;47.902;12.308;2023-12-20T00:49:39;95413.41;;;3.84;81.70
69171;BME280;56279;47.902;12.308;2023-12-20T00:51:40;95417.94;;;3.88;81.40
69171;BME280;56279;47.902;12.308;2023-12-20T00:53:42;95404.44;;;3.91;81.32
69171;BME280;56279;47.902;12.308;2023-12-20T00:55:45;95405.53;;;3.95;81.16
69171;BME280;56279;47.902;12.308;2023-12-20T00:57:46;95408.50;;;3.99;81.00
69171;BME280;56279;47.902;12.308;2023-12-20T00:59:48;95401.22;;;4.01;80.73
69171;BME280;56279;47.902;12.308;2023-12-20T01:01:49;95400.28;;;4.07;80.60
69171;BME280;56279;47.902;12.308;2023-12-20T01:03:50;95390.63;;;4.07;80.67
69171;BME280;56279;47.902;12.308;2023-12-20T01:05:52;95393.00;;;4.09;80.45
69171;BME280;56279;47.902;12.308;2023-12-20T01:07:53;95392.78;;;4.10;80.32
69171;BME280;56279;47.902;12.308;2023-12-20T01:09:56;95389.91;;;4.12;80.16
69171;BME280;56279;47.902;12.308;2023-12-20T01:11:57;95387.88;;;4.14;80.16
69171;BME280;56279;47.902;12.308;2023-12-20T01:13:58;95388.41;;;4.16;80.02
69171;BME280;56279;47.902;12.308;2023-12-20T01:16:00;95381.94;;;4.18;79.92
69171;BME280;56279;47.902;12.308;2023-12-20T01:18:01;95386.16;;;4.19;80.02
69171;BME280;56279;47.902;12.308;2023-12-20T01:20:02;95386.69;;;4.22;79.76
69171;BME280;56279;47.902;12.308;2023-12-20T01:22:04;95376.00;;;4.23;79.46
69171;BME280;56279;47.902;12.308;2023-12-20T01:24:05;95373.94;;;4.25;79.64
69171;BME280;56279;47.902;12.308;2023-12-20T01:26:07;95375.22;;;4.22;79.40
69171;BME280;56279;47.902;12.308;2023-12-20T01:28:08;95362.09;;;4.17;79.33
69171;BME280;56279;47.902;12.308;2023-12-20T01:30:09;95362.00;;;4.12;79.58
69171;BME280;56279;47.902;12.308;2023-12-20T01:32:11;95363.72;;;4.07;79.75
69171;BME280;56279;47.902;12.308;2023-12-20T01:34:12;95361.81;;;4.02;80.04
69171;BME280;56279;47.902;12.308;2023-12-20T01:36:13;95365.94;;;3.98;79.85
69171;BME280;56279;47.902;12.308;2023-12-20T01:38:15;95353.09;;;3.97;80.36
69171;BME280;56279;47.902;12.308;2023-12-20T01:40:19;95359.91;;;3.98;80.06
69171;BME280;56279;47.902;12.308;2023-12-20T01:42:21;95357.53;;;3.96;80.16
69171;BME280;56279;47.902;12.308;2023-12-20T01:44:23;95349.22;;;3.99;79.66
69171;BME280;56279;47.902;12.308;2023-12-20T01:46:24;95336.72;;;4.01;79.36
69171;BME280;56279;47.902;12.308;2023-12-20T01:48:28;95330.56;;;4.07;79.36
69171;BME280;56279;47.902;12.308;2023-12-20T01:50:29;95330.16;;;4.15;78.63
69171;BME280;56279;47.902;12.308;2023-12-20T01:52:31;95330.81;;;4.22;78.33
69171;BME280;56279;47.902;12.308;2023-12-20T01:54:35;95328.84;;;4.30;78.22
69171;BME280;56279;47.902;12.308;2023-12-20T01:56:37;95325.59;;;4.39;77.57
69171;BME280;56279;47.902;12.308;2023-12-20T01:58:45;95326.31;;;4.51;76.93
69171;BME280;56279;47.902;12.308;2023-12-20T02:00:48;95321.47;;;4.60;76.54
69171;BME280;56279;47.902;12.308;2023-12-20T02:02:50;95314.25;;;4.67;76.38
69171;BME280;56279;47.902;12.308;2023-12-20T02:04:53;95315.84;;;4.68;75.95
69171;BME280;56279;47.902;12.308;2023-12-20T02:06:56;95309.03;;;4.67;75.81
69171;BME280;56279;47.902;12.308;2023-12-20T02:08:58;95308.47;;;4.65;75.89
69171;BME280;56279;47.902;12.308;2023-12-20T02:10:59;95312.59;;;4.61;76.29
69171;BME280;56279;47.902;12.308;2023-12-20T02:13:01;95307.06;;;4.57;76.35
69171;BME280;56279;47.902;12.308;2023-12-20T02:15:02;95310.47;;;4.58;76.28
69171;BME280;56279;47.902;12.308;2023-12-20T02:17:04;95309.13;;;4.55;76.39
69171;BME280;56279;47.902;12.308;2023-12-20T02:19:13;95314.34;;;4.55;76.19
69171;BME280;56279;47.902;12.308;2023-12-20T02:21:15;95312.22;;;4.52;76.47
69171;BME280;56279;47.902;12.308;2023-12-20T02:23:16;95300.44;;;4.50;76.69
69171;BME280;56279;47.902;12.308;2023-12-20T02:25:17;95306.59;;;4.44;76.68
69171;BME280;56279;47.902;12.308;2023-12-20T02:27:19;95297.91;;;4.38;76.83
69171;BME280;56279;47.902;12.308;2023-12-20T02:29:20;95301.94;;;4.29;77.41
69171;BME280;56279;47.902;12.308;2023-12-20T02:31:23;95300.91;;;4.13;77.95
69171;BME280;56279;47.902;12.308;2023-12-20T02:33:24;95302.78;;;4.01;78.74
69171;BME280;56279;47.902;12.308;2023-12-20T02:35:26;95289.56;;;3.91;78.92
69171;BME280;56279;47.902;12.308;2023-12-20T02:37:27;95290.19;;;3.82;79.41
69171;BME280;56279;47.902;12.308;2023-12-20T02:39:28;95282.53;;;3.75;79.77
69171;BME280;56279;47.902;12.308;2023-12-20T02:41:29;95280.63;;;3.71;80.62
69171;BME280;56279;47.902;12.308;2023-12-20T02:43:31;95274.25;;;3.67;80.62
69171;BME280;56279;47.902;12.308;2023-12-20T02:45:32;95267.69;;;3.64;80.62
69171;BME280;56279;47.902;12.308;2023-12-20T02:47:33;95272.91;;;3.64;80.95
69171;BME280;56279;47.902;12.308;2023-12-20T02:49:34;95275.31;;;3.66;80.41
69171;BME280;56279;47.902;12.308;2023-12-20T02:51:36;95270.63;;;3.68;80.43
69171;BME280;56279;47.902;12.308;2023-12-20T02:53:39;95275.63;;;3.69;80.63
69171;BME280;56279;47.902;12.308;2023-12-20T02:55:41;95276.16;;;3.71;80.40
69171;BME280;56279;47.902;12.308;2023-12-20T02:57:42;95270.72;;;3.73;80.13
69171;BME280;56279;47.902;12.308;2023-12-20T02:59:44;95273.34;;;3.73;80.22
69171;BME280;56279;47.902;12.308;2023-12-20T03:01:45;95274.91;;;3.74;80.34
69171;BME280;56279;47.902;12.308;2023-12-20T03:03:47;95274.91;;;3.74;79.90
69171;BME280;56279;47.902;12.308;2023-12-20T03:05:48;95270.81;;;3.78;80.35
69171;BME280;56279;47.902;12.308;2023-12-20T03:07:49;95268.53;;;3.81;79.88
69171;BME280;56279;47.902;12.308;2023-12-20T03:09:50;95269.41;;;3.87;79.50
69171;BME280;56279;47.902;12.308;2023-12-20T03:11:52;95268.16;;;3.89;79.36
69171;BME280;56279;47.902;12.308;2023-12-20T03:13:53;95266.88;;;3.92;78.99
69171;BME280;56279;47.902;12.308;2023-12-20T03:15:54;95254.38;;;3.94;78.83
69171;BME280;56279;47.902;12.308;2023-12-20T03:17:55;95253.59;;;3.93;79.31
69171;BME280;56279;47.902;12.308;2023-12-20T03:19:57;95252.00;;;3.92;79.23
69171;BME280;56279;47.902;12.308;2023-12-20T03:21:58;95254.06;;;3.90;79.24
69171;BME280;56279;47.902;12.308;2023-12-20T03:24:01;95250.63;;;3.90;79.52
69171;BME280;56279;47.902;12.308;2023-12-20T03:26:03;95243.84;;;3.89;79.63
69171;BME280;56279;47.902;12.308;2023-12-20T03:28:04;95245.22;;;3.91;79.48
69171;BME280;56279;47.902;12.308;2023-12-20T03:30:06;95251.78;;;3.94;79.53
69171;BME280;56279;47.902;12.308;2023-12-20T03:32:07;95255.47;;;3.98;79.59
69171;BME280;56279;47.902;12.308;2023-12-20T03:34:09;95250.34;;;4.03;79.10
69171;BME280;56279;47.902;12.308;2023-12-20T03:36:11;95258.47;;;4.06;79.43
69171;BME280;56279;47.902;12.308;2023-12-20T03:38:12;95253.34;;;4.11;78.85
69171;BME280;56279;47.902;12.308;2023-12-20T03:40:14;95250.56;;;4.18;78.87
69171;BME280;56279;47.902;12.308;2023-12-20T03:42:15;95245.22;;;4.25;78.53
69171;BME280;56279;47.902;12.308;2023-12-20T03:44:16;95249.47;;;4.31;78.68
69171;BME280;56279;47.902;12.308;2023-12-20T03:46:17;95250.81;;;4.33;78.58
69171;BME280;56279;47.902;12.308;2023-12-20T03:48:19;95252.69;;;4.38;78.34
69171;BME280;56279;47.902;12.308;2023-12-20T03:50:22;95248.91;;;4.45;78.05
69171;BME280;56279;47.902;12.308;2023-12-20T03:52:23;95249.25;;;4.54;77.80
69171;BME280;56279;47.902;12.308;2023-12-20T03:54:24;95245.69;;;4.60;77.40
69171;BME280;56279;47.902;12.308;2023-12-20T03:56:25;95247.34;;;4.66;77.91
69171;BME280;56279;47.902;12.308;2023-12-20T03:58:27;95250.50;;;4.68;77.59
69171;BME280;56279;47.902;12.308;2023-12-20T04:00:28;95246.38;;;4.72;77.11
69171;BME280;56279;47.902;12.308;2023-12-20T04:02:29;95252.72;;;4.76;77.03
69171;BME280;56279;47.902;12.308;2023-12-20T04:04:30;95255.38;;;4.81;77.03
69171;BME280;56279;47.902;12.308;2023-12-20T04:06:31;95253.31;;;4.83;76.79
69171;BME280;56279;47.902;12.308;2023-12-20T04:08:33;95252.81;;;4.86;76.92
69171;BME280;56279;47.902;12.308;2023-12-20T04:10:34;95257.31;;;4.90;76.21
69171;BME280;56279;47.902;12.308;2023-12-20T04:12:35;95259.22;;;4.95;76.01
69171;BME280;56279;47.902;12.308;2023-12-20T04:14:36;95256.66;;;5.00;75.61
69171;BME280;56279;47.902;12.308;2023-12-20T04:16:38;95257.75;;;5.04;75.44
69171;BME280;56279;47.902;12.308;2023-12-20T04:18:40;95266.72;;;5.08;75.21
69171;BME280;56279;47.902;12.308;2023-12-20T04:20:41;95274.31;;;5.10;75.01
69171;BME280;56279;47.902;12.308;2023-12-20T04:22:42;95269.88;;;5.10;74.90
69171;BME280;56279;47.902;12.308;2023-12-20T04:24:43;95270.88;;;5.09;74.84
69171;BME280;56279;47.902;12.308;2023-12-20T04:26:45;95281.34;;;5.09;75.12
69171;BME280;56279;47.902;12.308;2023-12-20T04:28:46;95272.97;;;5.07;75.26
69171;BME280;56279;47.902;12.308;2023-12-20T04:30:47;95287.84;;;5.07;75.01
69171;BME280;56279;47.902;12.308;2023-12-20T04:32:49;95292.31;;;5.06;75.36
69171;BME280;56279;47.902;12.308;2023-12-20T04:34:50;95290.72;;;5.05;75.54
69171;BME280;56279;47.902;12.308;2023-12-20T04:36:51;95294.59;;;5.03;75.70
69171;BME280;56279;47.902;12.308;2023-12-20T04:38:53;95301.13;;;5.00;75.81
69171;BME280;56279;47.902;12.308;2023-12-20T04:40:54;95299.53;;;4.99;75.65
69171;BME280;56279;47.902;12.308;2023-12-20T04:42:56;95307.41;;;4.99;75.80
69171;BME280;56279;47.902;12.308;2023-12-20T04:44:57;95309.22;;;4.99;75.92
69171;BME280;56279;47.902;12.308;2023-12-20T04:46:58;95305.78;;;4.98;76.11
69171;BME280;56279;47.902;12.308;2023-12-20T04:48:59;95306.81;;;4.97;76.24
69171;BME280;56279;47.902;12.308;2023-12-20T04:51:00;95308.41;;;4.98;76.19
69171;BME280;56279;47.902;12.308;2023-12-20T04:53:02;95308.47;;;5.03;75.65
69171;BME280;56279;47.902;12.308;2023-12-20T04:55:03;95316.94;;;5.10;75.68
69171;BME280;56279;47.902;12.308;2023-12-20T04:57:05;95323.59;;;5.18;75.23
69171;BME280;56279;47.902;12.308;2023-12-20T04:59:06;95329.44;;;5.25;75.03
69171;BME280;56279;47.902;12.308;2023-12-20T05:01:08;95333.69;;;5.31;75.02
69171;BME280;56279;47.902;12.308;2023-12-20T05:03:10;95329.31;;;5.36;75.37
69171;BME280;56279;47.902;12.308;2023-12-20T05:05:11;95340.59;;;5.42;75.34
69171;BME280;56279;47.902;12.308;2023-12-20T05:07:12;95339.88;;;5.46;75.63
69171;BME280;56279;47.902;12.308;2023-12-20T05:09:14;95335.50;;;5.52;75.76
69171;BME280;56279;47.902;12.308;2023-12-20T05:11:15;95329.53;;;5.56;75.83
69171;BME280;56279;47.902;12.308;2023-12-20T05:13:17;95318.59;;;5.59;76.44
69171;BME280;56279;47.902;12.308;2023-12-20T05:15:18;95317.31;;;5.62;76.42
69171;BME280;56279;47.902;12.308;2023-12-20T05:17:19;95311.28;;;5.62;77.33
69171;BME280;56279;47.902;12.308;2023-12-20T05:19:21;95331.97;;;5.63;77.54
69171;BME280;56279;47.902;12.308;2023-12-20T05:21:22;95322.28;;;5.64;78.13
69171;BME280;56279;47.902;12.308;2023-12-20T05:23:23;95316.78;;;5.65;78.40
69171;BME280;56279;47.902;12.308;2023-12-20T05:25:25;95321.28;;;5.70;79.36
69171;BME280;56279;47.902;12.308;2023-12-20T05:27:26;95326.59;;;5.75;79.75
69171;BME280;56279;47.902;12.308;2023-12-20T05:29:27;95320.88;;;5.78;79.71
69171;BME280;56279;47.902;12.308;2023-12-20T05:31:28;95327.19;;;5.82;80.21
69171;BME280;56279;47.902;12.308;2023-12-20T05:33:29;95333.78;;;5.84;80.23
69171;BME280;56279;47.902;12.308;2023-12-20T05:35:31;95333.56;;;5.86;80.26
69171;BME280;56279;47.902;12.308;2023-12-20T05:37:32;95341.16;;;5.87;80.57
69171;BME280;56279;47.902;12.308;2023-12-20T05:39:33;95327.00;;;5.88;80.27
69171;BME280;56279;47.902;12.308;2023-12-20T05:41:34;95330.41;;;5.89;80.54
69171;BME280;56279;47.902;12.308;2023-12-20T05:43:35;95336.94;;;5.86;80.71
69171;BME280;56279;47.902;12.308;2023-12-20T05:45:37;95339.81;;;5.85;81.35
69171;BME280;56279;47.902;12.308;2023-12-20T05:47:38;95341.63;;;5.84;81.19
69171;BME280;56279;47.902;12.308;2023-12-20T05:49:39;95339.81;;;5.85;82.09
69171;BME280;56279;47.902;12.308;2023-12-20T05:51:41;95353.13;;;5.83;82.57
69171;BME280;56279;47.902;12.308;2023-12-20T05:53:42;95360.75;;;5.85;82.66
69171;BME280;56279;47.902;12.308;2023-12-20T05:55:43;95354.72;;;5.84;83.26
69171;BME280;56279;47.902;12.308;2023-12-20T05:57:44;95355.75;;;5.83;82.95
69171;BME280;56279;47.902;12.308;2023-12-20T05:59:45;95362.28;;;5.81;83.86
69171;BME280;56279;47.902;12.308;2023-12-20T06:01:47;95363.28;;;5.80;84.04
69171;BME280;56279;47.902;12.308;2023-12-20T06:03:48;95370.13;;;5.81;84.31
69171;BME280;56279;47.902;12.308;2023-12-20T06:05:49;95370.34;;;5.79;84.61
69171;BME280;56279;47.902;12.308;2023-12-20T06:07:50;95373.22;;;5.78;84.88
69171;BME280;56279;47.902;12.308;2023-12-20T06:09:51;95369.00;;;5.77;85.27
69171;BME280;56279;47.902;12.308;2023-12-20T06:11:53;95375.31;;;5.76;85.60
69171;BME280;56279;47.902;12.308;2023-12-20T06:13:54;95377.13;;;5.75;86.19
69171;BME280;56279;47.902;12.308;2023-12-20T06:15:55;95380.00;;;5.74;86.77
69171;BME280;56279;47.902;12.308;2023-12-20T06:17:57;95389.66;;;5.73;87.37
69171;BME280;56279;47.902;12.308;2023-12-20T06:19:59;95392.03;;;5.75;87.61
69171;BME280;56279;47.902;12.308;2023-12-20T06:22:00;95398.06;;;5.75;87.73
69171;BME280;56279;47.902;12.308;2023-12-20T06:24:01;95391.00;;;5.76;87.62
69171;BME280;56279;47.902;12.308;2023-12-20T06:26:03;95393.63;;;5.76;87.99
69171;BME280;56279;47.902;12.308;2023-12-20T06:28:04;95399.88;;;5.75;88.29
69171;BME280;56279;47.902;12.308;2023-12-20T06:30:06;95404.31;;;5.74;88.71
69171;BME280;56279;47.902;12.308;2023-12-20T06:32:08;95404.31;;;5.74;88.95
69171;BME280;56279;47.902;12.308;2023-12-20T06:34:10;95407.19;;;5.73;89.06
69171;BME280;56279;47.902;12.308;2023-12-20T06:36:13;95405.63;;;5.72;89.40
69171;BME280;56279;47.902;12.308;2023-12-20T06:38:14;95404.28;;;5.69;89.98
69171;BME280;56279;47.902;12.308;2023-12-20T06:40:15;95416.59;;;5.69;90.26
69171;BME280;56279;47.902;12.308;2023-12-20T06:42:17;95414.44;;;5.66;90.36
69171;BME280;56279;47.902;12.308;2023-12-20T06:44:18;95424.63;;;5.62;90.69
69171;BME280;56279;47.902;12.308;2023-12-20T06:46:22;95423.28;;;5.59;91.27
69171;BME280;56279;47.902;12.308;2023-12-20T06:48:33;95417.72;;;5.56;91.11
69171;BME280;56279;47.902;12.308;2023-12-20T06:50:34;95433.13;;;5.52;91.37
69171;BME280;56279;47.902;12.308;2023-12-20T06:52:35;95433.34;;;5.51;91.88
69171;BME280;56279;47.902;12.308;2023-12-20T06:54:37;95430.69;;;5.46;92.41
69171;BME280;56279;47.902;12.308;2023-12-20T06:56:38;95432.75;;;5.44;92.60
69171;BME280;56279;47.902;12.308;2023-12-20T06:58:39;95439.25;;;5.41;93.17
69171;BME280;56279;47.902;12.308;2023-12-20T07:00:40;95442.13;;;5.40;93.62
69171;BME280;56279;47.902;12.308;2023-12-20T07:02:43;95452.03;;;5.38;93.57
69171;BME280;56279;47.902;12.308;2023-12-20T07:04:44;95458.53;;;5.35;93.65
69171;BME280;56279;47.902;12.308;2023-12-20T07:06:46;95456.41;;;5.32;93.85
69171;BME280;56279;47.902;12.308;2023-12-20T07:08:47;95473.63;;;5.28;94.26
69171;BME280;56279;47.902;12.308;2023-12-20T07:10:48;95477.19;;;5.22;94.25
69171;BME280;56279;47.902;12.308;2023-12-20T07:12:49;95477.66;;;5.19;94.83
69171;BME280;56279;47.902;12.308;2023-12-20T07:14:52;95476.56;;;5.15;95.14
69171;BME280;56279;47.902;12.308;2023-12-20T07:16:53;95489.09;;;5.13;95.55
69171;BME280;56279;47.902;12.308;2023-12-20T07:18:54;95494.78;;;5.10;95.22
69171;BME280;56279;47.902;12.308;2023-12-20T07:20:55;95487.97;;;5.09;95.38
69171;BME280;56279;47.902;12.308;2023-12-20T07:22:57;95498.44;;;5.09;95.42
69171;BME280;56279;47.902;12.308;2023-12-20T07:24:58;95496.84;;;5.08;95.25
69171;BME280;56279;47.902;12.308;2023-12-20T07:27:00;95504.16;;;5.06;95.91
69171;BME280;56279;47.902;12.308;2023-12-20T07:29:01;95502.56;;;5.05;95.76
69171;BME280;56279;47.902;12.308;2023-12-20T07:31:04;95497.31;;;5.05;96.00
69171;BME280;56279;47.902;12.308;2023-12-20T07:33:05;95499.13;;;5.05;95.80
69171;BME280;56279;47.902;12.308;2023-12-20T07:35:09;95506.19;;;5.04;95.94
69171;BME280;56279;47.902;12.308;2023-12-20T07:37:10;95506.19;;;5.04;96.14
69171;BME280;56279;47.902;12.308;2023-12-20T07:39:13;95511.41;;;5.04;96.12
69171;BME280;56279;47.902;12.308;2023-12-20T07:41:14;95504.63;;;5.03;96.09
69171;BME280;56279;47.902;12.308;2023-12-20T07:43:17;95514.03;;;5.04;96.41
69171;BME280;56279;47.902;12.308;2023-12-20T07:45:18;95510.66;;;5.04;96.09
69171;BME280;56279;47.902;12.308;2023-12-20T07:47:19;95516.66;;;5.04;96.43
69171;BME280;56279;47.902;12.308;2023-12-20T07:49:22;95514.28;;;5.03;96.17
69171;BME280;56279;47.902;12.308;2023-12-20T07:51:23;95517.69;;;5.03;96.39
69171;BME280;56279;47.902;12.308;2023-12-20T07:53:25;95520.31;;;5.03;96.32
69171;BME280;56279;47.902;12.308;2023-12-20T07:55:27;95528.16;;;5.03;96.88
69171;BME280;56279;47.902;12.308;2023-12-20T07:57:29;95528.16;;;5.03;96.35
69171;BME280;56279;47.902;12.308;2023-12-20T07:59:31;95527.59;;;5.01;96.83
69171;BME280;56279;47.902;12.308;2023-12-20T08:01:32;95527.59;;;5.01;96.82
69171;BME280;56279;47.902;12.308;2023-12-20T08:03:34;95526.81;;;5.01;96.95
69171;BME280;56279;47.902;12.308;2023-12-20T08:05:35;95521.56;;;5.01;97.00
69171;BME280;56279;47.902;12.308;2023-12-20T08:07:37;95526.81;;;5.01;97.42
69171;BME280;56279;47.902;12.308;2023-12-20T08:09:38;95527.81;;;5.00;97.46
69171;BME280;56279;47.902;12.308;2023-12-20T08:11:39;95517.34;;;5.00;97.41
69171;BME280;56279;47.902;12.308;2023-12-20T08:13:40;95527.81;;;5.00;97.44
69171;BME280;56279;47.902;12.308;2023-12-20T08:15:42;95524.44;;;4.99;97.09
69171;BME280;56279;47.902;12.308;2023-12-20T08:17:43;95531.69;;;4.97;97.46
69171;BME280;56279;47.902;12.308;2023-12-20T08:19:44;95529.88;;;4.98;97.33
69171;BME280;56279;47.902;12.308;2023-12-20T08:21:45;95529.88;;;4.98;97.31
69171;BME280;56279;47.902;12.308;2023-12-20T08:23:47;95536.16;;;4.97;97.50
69171;BME280;56279;47.902;12.308;2023-12-20T08:25:48;95536.16;;;4.97;97.65
69171;BME280;56279;47.902;12.308;2023-12-20T08:27:50;95535.91;;;4.98;97.73
69171;BME280;56279;47.902;12.308;2023-12-20T08:29:51;95534.09;;;4.99;97.73
69171;BME280;56279;47.902;12.308;2023-12-20T08:31:53;95532.50;;;4.98;98.13
69171;BME280;56279;47.902;12.308;2023-12-20T08:33:55;95536.94;;;4.97;98.06
69171;BME280;56279;47.902;12.308;2023-12-20T08:35:56;95535.38;;;4.96;98.05
69171;BME280;56279;47.902;12.308;2023-12-20T08:37:58;95529.56;;;4.94;98.32
69171;BME280;56279;47.902;12.308;2023-12-20T08:39:59;95528.78;;;4.94;98.31
69171;BME280;56279;47.902;12.308;2023-12-20T08:42:00;95538.69;;;4.92;98.49
69171;BME280;56279;47.902;12.308;2023-12-20T08:44:02;95540.50;;;4.91;98.34
69171;BME280;56279;47.902;12.308;2023-12-20T08:46:03;95543.91;;;4.92;98.37
69171;BME280;56279;47.902;12.308;2023-12-20T08:48:04;95544.72;;;4.92;98.24
69171;BME280;56279;47.902;12.308;2023-12-20T08:50:06;95545.47;;;4.93;98.34
69171;BME280;56279;47.902;12.308;2023-12-20T08:52:08;95539.47;;;4.92;98.07
69171;BME280;56279;47.902;12.308;2023-12-20T08:54:09;95537.63;;;4.93;98.09
69171;BME280;56279;47.902;12.308;2023-12-20T08:56:11;95548.91;;;4.93;98.42
69171;BME280;56279;47.902;12.308;2023-12-20T08:58:13;95536.88;;;4.92;98.24
69171;BME280;56279;47.902;12.308;2023-12-20T09:00:15;95549.16;;;4.92;98.20
69171;BME280;56279;47.902;12.308;2023-12-20T09:02:19;95550.97;;;4.91;98.44
69171;BME280;56279;47.902;12.308;2023-12-20T09:04:20;95552.56;;;4.92;98.37
69171;BME280;56279;47.902;12.308;2023-12-20T09:06:21;95557.78;;;4.92;98.30
69171;BME280;56279;47.902;12.308;2023-12-20T09:08:23;95558.81;;;4.91;98.25
69171;BME280;56279;47.902;12.308;2023-12-20T09:10:24;95556.53;;;4.95;98.43
69171;BME280;56279;47.902;12.308;2023-12-20T09:12:26;95559.91;;;4.95;98.33
69171;BME280;56279;47.902;12.308;2023-12-20T09:14:28;95552.88;;;4.96;98.22
69171;BME280;56279;47.902;12.308;2023-12-20T09:16:29;95555.47;;;4.96;98.29
69171;BME280;56279;47.902;12.308;2023-12-20T09:18:32;95562.53;;;4.95;98.40
69171;BME280;56279;47.902;12.308;2023-12-20T09:20:34;95551.06;;;4.96;98.43
69171;BME280;56279;47.902;12.308;2023-12-20T09:22:35;95550.00;;;4.97;98.19
69171;BME280;56279;47.902;12.308;2023-12-20T09:24:39;95555.81;;;4.99;98.37
69171;BME280;56279;47.902;12.308;2023-12-20T09:26:40;95554.78;;;5.00;97.92
69171;BME280;56279;47.902;12.308;2023-12-20T09:28:43;95550.34;;;5.01;97.85
69171;BME280;56279;47.902;12.308;2023-12-20T09:30:45;95544.31;;;5.00;97.92
69171;BME280;56279;47.902;12.308;2023-12-20T09:32:47;95540.13;;;4.99;98.16
69171;BME280;56279;47.902;12.308;2023-12-20T09:34:48;95544.31;;;5.00;97.90
69171;BME280;56279;47.902;12.308;2023-12-20T09:36:49;95542.97;;;4.98;98.07
69171;BME280;56279;47.902;12.308;2023-12-20T09:38:51;95545.03;;;4.96;98.19
69171;BME280;56279;47.902;12.308;2023-12-20T09:40:53;95545.81;;;4.96;98.27
69171;BME280;56279;47.902;12.308;2023-12-20T09:42:58;95540.59;;;4.96;97.92
69171;BME280;56279;47.902;12.308;2023-12-20T09:45:01;95542.16;;;4.97;98.14
69171;BME280;56279;47.902;12.308;2023-12-20T09:47:06;95540.59;;;4.96;98.18
69171;BME280;56279;47.902;12.308;2023-12-20T09:49:07;95546.06;;;4.95;98.13
69171;BME280;56279;47.902;12.308;2023-12-20T09:51:09;95546.28;;;4.93;97.98
69171;BME280;56279;47.902;12.308;2023-12-20T09:53:13;95543.13;;;4.91;98.02
69171;BME280;56279;47.902;12.308;2023-12-20T09:55:17;95549.38;;;4.90;97.94
69171;BME280;56279;47.902;12.308;2023-12-20T09:57:18;95548.81;;;4.88;98.16
69171;BME280;56279;47.902;12.308;2023-12-20T09:59:20;95548.81;;;4.88;98.06
69171;BME280;56279;47.902;12.308;2023-12-20T10:01:22;95543.03;;;4.86;98.42
69171;BME280;56279;47.902;12.308;2023-12-20T10:03:25;95542.00;;;4.87;98.45
69171;BME280;56279;47.902;12.308;2023-12-20T10:05:31;95535.72;;;4.88;98.11
69171;BME280;56279;47.902;12.308;2023-12-20T10:07:32;95534.47;;;4.90;98.22
69171;BME280;56279;47.902;12.308;2023-12-20T10:09:34;95533.47;;;4.92;98.13
69171;BME280;56279;47.902;12.308;2023-12-20T10:11:36;95526.16;;;4.94;98.21
69171;BME280;56279;47.902;12.308;2023-12-20T10:13:41;95527.06;;;4.99;97.98
69171;BME280;56279;47.902;12.308;2023-12-20T10:15:42;95523.19;;;5.02;97.77
69171;BME280;56279;47.902;12.308;2023-12-20T10:17:44;95520.31;;;5.03;98.12
69171;BME280;56279;47.902;12.308;2023-12-20T10:19:45;95520.06;;;5.05;97.76
69171;BME280;56279;47.902;12.308;2023-12-20T10:21:46;95514.63;;;5.06;97.82
69171;BME280;56279;47.902;12.308;2023-12-20T10:23:48;95512.78;;;5.07;98.12
69171;BME280;56279;47.902;12.308;2023-12-20T10:25:56;95516.97;;;5.08;97.83
69171;BME280;56279;47.902;12.308;2023-12-20T10:28:12;95511.75;;;5.08;97.85
69171;BME280;56279;47.902;12.308;2023-12-20T10:30:14;95515.38;;;5.07;97.76
69171;BME280;56279;47.902;12.308;2023-12-20T10:32:25;95519.84;;;5.06;97.65
69171;BME280;56279;47.902;12.308;2023-12-20T10:34:27;95510.66;;;5.04;98.00
69171;BME280;56279;47.902;12.308;2023-12-20T10:36:30;95509.38;;;5.06;97.96
69171;BME280;56279;47.902;12.308;2023-12-20T10:38:31;95507.31;;;5.08;97.77
69171;BME280;56279;47.902;12.308;2023-12-20T10:40:36;95504.22;;;5.11;97.84
69171;BME280;56279;47.902;12.308;2023-12-20T10:42:39;95502.41;;;5.12;97.76
69171;BME280;56279;47.902;12.308;2023-12-20T10:44:42;95506.81;;;5.11;97.69